Etusivu
METAR-TAF:

METAR-TAF

Lentoasemat :

Hermiston Municipal Airport

Hermiston, Oregon, Yhdysvallat

Leveyspiiri: 45-49-33N, Pituuspiiri: 119-15-40W, korkeus merenpinnasta: 194 m

Tämänhetkinen sää

Tämä raportti tehtiin 15 minuuttia sitten, kello 13.53 UTC
Tuuli 3 kn etelästä/kaakosta
Lämpötila 6°C
Kosteus 81%
Ilmanpaine 1022 hPa
Näkyvyys: 16.1 km
selkeää

METAR: KHRI 291353Z AUTO 16003KT 10SM CLR 06/03 A3019 RMK AO2 SLP223 T00610028

Aika: 07:08 (14:08 UTC)


TAF: puuttuu

Säähavainnot ja -ennusteet yli 4000 lentoasemalta (METAR- ja TAF-raportit).

Käytössä olevat sääasemat on merkitty karttaan keltaisilla ja punaisilla pisteillä.

Aseta hiiri pisteen päälle nähdäksesi sääaseman nimen.

Klikkaa sitten nähdäksesi säähavainnot ja -ennusteet.

Kartan vaihtaminen: klikkaa mustalla rastilla varustettuja vihreitä pisteitä, niin voit zoomata sisään; viivalla varustettua vihreää pistettä, niin voit zoomata ulos tai vihreitä nuolia, niin pääset viereisille kartoille.


METAR-TAF: